sensor_id;sensor_type;location;lat;lon;timestamp;P1;durP1;ratioP1;P2;durP2;ratioP2
1452;SDS011;720;47.738;7.998;2024-03-08T00:01:41;25.30;;;14.73;;
1452;SDS011;720;47.738;7.998;2024-03-08T00:04:06;21.40;;;12.47;;
1452;SDS011;720;47.738;7.998;2024-03-08T00:06:33;27.35;;;14.05;;
1452;SDS011;720;47.738;7.998;2024-03-08T00:08:58;25.20;;;13.67;;
1452;SDS011;720;47.738;7.998;2024-03-08T00:11:25;23.70;;;14.10;;
1452;SDS011;720;47.738;7.998;2024-03-08T00:13:51;26.60;;;15.10;;
1452;SDS011;720;47.738;7.998;2024-03-08T00:16:18;25.70;;;14.40;;
1452;SDS011;720;47.738;7.998;2024-03-08T00:18:48;25.05;;;14.05;;
1452;SDS011;720;47.738;7.998;2024-03-08T00:21:14;24.33;;;13.60;;
1452;SDS011;720;47.738;7.998;2024-03-08T00:23:40;28.13;;;13.68;;
1452;SDS011;720;47.738;7.998;2024-03-08T00:26:06;18.92;;;13.38;;
1452;SDS011;720;47.738;7.998;2024-03-08T00:28:32;18.07;;;14.10;;
1452;SDS011;720;47.738;7.998;2024-03-08T00:30:59;29.27;;;15.77;;
1452;SDS011;720;47.738;7.998;2024-03-08T00:33:25;20.53;;;15.10;;
1452;SDS011;720;47.738;7.998;2024-03-08T00:35:52;22.80;;;11.73;;
1452;SDS011;720;47.738;7.998;2024-03-08T00:38:21;29.20;;;14.25;;
1452;SDS011;720;47.738;7.998;2024-03-08T00:40:46;25.70;;;14.20;;
1452;SDS011;720;47.738;7.998;2024-03-08T00:43:12;15.27;;;10.97;;
1452;SDS011;720;47.738;7.998;2024-03-08T00:45:38;21.38;;;12.05;;
1452;SDS011;720;47.738;7.998;2024-03-08T00:48:04;25.73;;;13.50;;
1452;SDS011;720;47.738;7.998;2024-03-08T00:50:30;25.75;;;13.35;;
1452;SDS011;720;47.738;7.998;2024-03-08T00:52:56;21.30;;;11.93;;
1452;SDS011;720;47.738;7.998;2024-03-08T00:55:21;24.73;;;14.23;;
1452;SDS011;720;47.738;7.998;2024-03-08T00:57:47;22.43;;;12.57;;
1452;SDS011;720;47.738;7.998;2024-03-08T01:00:13;24.40;;;14.57;;
1452;SDS011;720;47.738;7.998;2024-03-08T01:02:39;24.63;;;11.95;;
1452;SDS011;720;47.738;7.998;2024-03-08T01:05:05;20.80;;;12.83;;
1452;SDS011;720;47.738;7.998;2024-03-08T01:07:32;20.48;;;12.18;;
1452;SDS011;720;47.738;7.998;2024-03-08T01:09:59;19.95;;;14.00;;
1452;SDS011;720;47.738;7.998;2024-03-08T01:12:25;25.48;;;12.45;;
1452;SDS011;720;47.738;7.998;2024-03-08T01:14:51;19.57;;;11.63;;
1452;SDS011;720;47.738;7.998;2024-03-08T01:17:17;17.33;;;11.80;;
1452;SDS011;720;47.738;7.998;2024-03-08T01:19:42;20.60;;;13.20;;
1452;SDS011;720;47.738;7.998;2024-03-08T01:22:10;26.48;;;12.73;;
1452;SDS011;720;47.738;7.998;2024-03-08T01:24:35;19.70;;;13.10;;
1452;SDS011;720;47.738;7.998;2024-03-08T01:27:02;24.85;;;12.40;;
1452;SDS011;720;47.738;7.998;2024-03-08T01:29:28;26.88;;;13.55;;
1452;SDS011;720;47.738;7.998;2024-03-08T01:31:57;24.38;;;13.27;;
1452;SDS011;720;47.738;7.998;2024-03-08T01:34:25;19.20;;;9.95;;
1452;SDS011;720;47.738;7.998;2024-03-08T01:36:53;16.55;;;9.68;;
1452;SDS011;720;47.738;7.998;2024-03-08T01:39:20;21.05;;;10.27;;
1452;SDS011;720;47.738;7.998;2024-03-08T01:41:47;20.48;;;11.95;;
1452;SDS011;720;47.738;7.998;2024-03-08T01:44:12;19.47;;;10.60;;
1452;SDS011;720;47.738;7.998;2024-03-08T01:46:42;16.02;;;10.55;;
1452;SDS011;720;47.738;7.998;2024-03-08T01:49:12;19.05;;;10.30;;
1452;SDS011;720;47.738;7.998;2024-03-08T01:51:39;22.38;;;11.23;;
1452;SDS011;720;47.738;7.998;2024-03-08T01:54:06;18.98;;;11.05;;
1452;SDS011;720;47.738;7.998;2024-03-08T01:56:35;22.55;;;12.32;;
1452;SDS011;720;47.738;7.998;2024-03-08T01:59:01;23.60;;;10.52;;
1452;SDS011;720;47.738;7.998;2024-03-08T02:01:28;20.15;;;12.20;;
1452;SDS011;720;47.738;7.998;2024-03-08T02:03:54;23.65;;;10.82;;
1452;SDS011;720;47.738;7.998;2024-03-08T02:06:19;20.37;;;13.93;;
1452;SDS011;720;47.738;7.998;2024-03-08T02:08:45;24.20;;;13.87;;
1452;SDS011;720;47.738;7.998;2024-03-08T02:11:11;18.35;;;10.50;;
1452;SDS011;720;47.738;7.998;2024-03-08T02:13:37;21.02;;;11.57;;
1452;SDS011;720;47.738;7.998;2024-03-08T02:16:03;30.47;;;11.97;;
1452;SDS011;720;47.738;7.998;2024-03-08T02:18:33;17.42;;;10.15;;
1452;SDS011;720;47.738;7.998;2024-03-08T02:21:00;26.83;;;10.02;;
1452;SDS011;720;47.738;7.998;2024-03-08T02:23:29;17.60;;;9.57;;
1452;SDS011;720;47.738;7.998;2024-03-08T02:25:55;17.07;;;9.10;;
1452;SDS011;720;47.738;7.998;2024-03-08T02:28:21;18.55;;;11.35;;
1452;SDS011;720;47.738;7.998;2024-03-08T02:30:48;22.35;;;12.30;;
1452;SDS011;720;47.738;7.998;2024-03-08T02:33:15;21.80;;;10.38;;
1452;SDS011;720;47.738;7.998;2024-03-08T02:35:43;19.42;;;11.27;;
1452;SDS011;720;47.738;7.998;2024-03-08T02:38:13;15.65;;;9.70;;
1452;SDS011;720;47.738;7.998;2024-03-08T02:40:42;18.77;;;10.00;;
1452;SDS011;720;47.738;7.998;2024-03-08T02:43:08;23.35;;;9.75;;
1452;SDS011;720;47.738;7.998;2024-03-08T02:45:35;19.95;;;10.93;;
1452;SDS011;720;47.738;7.998;2024-03-08T02:48:01;22.50;;;11.50;;
1452;SDS011;720;47.738;7.998;2024-03-08T02:50:26;25.57;;;12.27;;
1452;SDS011;720;47.738;7.998;2024-03-08T02:52:52;17.53;;;9.67;;
1452;SDS011;720;47.738;7.998;2024-03-08T02:55:18;14.07;;;10.73;;
1452;SDS011;720;47.738;7.998;2024-03-08T02:57:43;27.37;;;11.67;;
1452;SDS011;720;47.738;7.998;2024-03-08T03:00:09;18.57;;;10.47;;
1452;SDS011;720;47.738;7.998;2024-03-08T03:02:35;23.27;;;12.10;;
1452;SDS011;720;47.738;7.998;2024-03-08T03:05:02;29.95;;;12.40;;
1452;SDS011;720;47.738;7.998;2024-03-08T03:07:31;26.90;;;11.57;;
1452;SDS011;720;47.738;7.998;2024-03-08T03:09:59;21.27;;;11.73;;
1452;SDS011;720;47.738;7.998;2024-03-08T03:12:26;21.35;;;12.18;;
1452;SDS011;720;47.738;7.998;2024-03-08T03:14:54;23.20;;;12.40;;
1452;SDS011;720;47.738;7.998;2024-03-08T03:17:22;18.65;;;10.73;;
1452;SDS011;720;47.738;7.998;2024-03-08T03:19:49;19.65;;;9.60;;
1452;SDS011;720;47.738;7.998;2024-03-08T03:22:16;23.08;;;11.75;;
1452;SDS011;720;47.738;7.998;2024-03-08T03:24:43;18.73;;;9.90;;
1452;SDS011;720;47.738;7.998;2024-03-08T03:27:09;17.77;;;7.95;;
1452;SDS011;720;47.738;7.998;2024-03-08T03:29:41;19.10;;;9.45;;
1452;SDS011;720;47.738;7.998;2024-03-08T03:32:10;14.38;;;8.20;;
1452;SDS011;720;47.738;7.998;2024-03-08T03:34:40;18.80;;;8.52;;
1452;SDS011;720;47.738;7.998;2024-03-08T03:37:07;13.20;;;8.07;;
1452;SDS011;720;47.738;7.998;2024-03-08T03:39:33;14.45;;;8.57;;
1452;SDS011;720;47.738;7.998;2024-03-08T03:42:02;14.73;;;9.27;;
1452;SDS011;720;47.738;7.998;2024-03-08T03:44:28;19.27;;;8.20;;
1452;SDS011;720;47.738;7.998;2024-03-08T03:46:54;20.23;;;8.43;;
1452;SDS011;720;47.738;7.998;2024-03-08T03:49:19;17.10;;;7.93;;
1452;SDS011;720;47.738;7.998;2024-03-08T03:51:45;17.33;;;8.50;;
1452;SDS011;720;47.738;7.998;2024-03-08T03:54:12;15.20;;;6.78;;
1452;SDS011;720;47.738;7.998;2024-03-08T03:56:38;15.82;;;6.80;;
1452;SDS011;720;47.738;7.998;2024-03-08T03:59:05;15.15;;;8.63;;
1452;SDS011;720;47.738;7.998;2024-03-08T04:01:31;13.65;;;7.22;;
1452;SDS011;720;47.738;7.998;2024-03-08T04:03:58;14.63;;;8.35;;
1452;SDS011;720;47.738;7.998;2024-03-08T04:06:23;18.67;;;7.57;;
1452;SDS011;720;47.738;7.998;2024-03-08T04:08:49;14.73;;;8.17;;
1452;SDS011;720;47.738;7.998;2024-03-08T04:11:15;14.30;;;6.90;;
1452;SDS011;720;47.738;7.998;2024-03-08T04:13:42;13.20;;;8.55;;
1452;SDS011;720;47.738;7.998;2024-03-08T04:16:08;14.43;;;6.82;;
1452;SDS011;720;47.738;7.998;2024-03-08T04:18:36;15.18;;;7.38;;
1452;SDS011;720;47.738;7.998;2024-03-08T04:21:03;15.30;;;6.35;;
1452;SDS011;720;47.738;7.998;2024-03-08T04:23:32;10.60;;;6.38;;
1452;SDS011;720;47.738;7.998;2024-03-08T04:26:01;7.82;;;5.68;;
1452;SDS011;720;47.738;7.998;2024-03-08T04:28:28;13.02;;;6.15;;
1452;SDS011;720;47.738;7.998;2024-03-08T04:30:54;19.00;;;8.93;;
1452;SDS011;720;47.738;7.998;2024-03-08T04:33:19;11.57;;;7.60;;
1452;SDS011;720;47.738;7.998;2024-03-08T04:35:46;14.85;;;6.55;;
1452;SDS011;720;47.738;7.998;2024-03-08T04:38:12;11.87;;;6.67;;
1452;SDS011;720;47.738;7.998;2024-03-08T04:40:38;14.53;;;7.30;;
1452;SDS011;720;47.738;7.998;2024-03-08T04:43:04;6.35;;;5.20;;
1452;SDS011;720;47.738;7.998;2024-03-08T04:45:31;12.38;;;5.50;;
1452;SDS011;720;47.738;7.998;2024-03-08T04:47:56;9.73;;;5.33;;
1452;SDS011;720;47.738;7.998;2024-03-08T04:50:22;11.57;;;4.47;;
1452;SDS011;720;47.738;7.998;2024-03-08T04:52:48;8.10;;;5.82;;
1452;SDS011;720;47.738;7.998;2024-03-08T04:55:14;10.73;;;6.20;;
1452;SDS011;720;47.738;7.998;2024-03-08T04:57:39;10.03;;;5.77;;
1452;SDS011;720;47.738;7.998;2024-03-08T05:00:07;11.00;;;6.25;;
1452;SDS011;720;47.738;7.998;2024-03-08T05:02:36;10.43;;;5.20;;
1452;SDS011;720;47.738;7.998;2024-03-08T05:05:04;7.82;;;4.60;;
1452;SDS011;720;47.738;7.998;2024-03-08T05:07:31;15.30;;;8.32;;
1452;SDS011;720;47.738;7.998;2024-03-08T05:09:57;9.75;;;4.32;;
1452;SDS011;720;47.738;7.998;2024-03-08T05:12:23;8.98;;;4.78;;
1452;SDS011;720;47.738;7.998;2024-03-08T05:14:50;8.00;;;5.05;;
1452;SDS011;720;47.738;7.998;2024-03-08T05:17:16;10.97;;;6.07;;
1452;SDS011;720;47.738;7.998;2024-03-08T05:19:42;11.77;;;6.00;;
1452;SDS011;720;47.738;7.998;2024-03-08T05:22:08;9.13;;;5.70;;
1452;SDS011;720;47.738;7.998;2024-03-08T05:24:34;12.37;;;6.30;;
1452;SDS011;720;47.738;7.998;2024-03-08T05:27:00;9.50;;;4.85;;
1452;SDS011;720;47.738;7.998;2024-03-08T05:29:27;13.52;;;6.93;;
1452;SDS011;720;47.738;7.998;2024-03-08T05:31:53;9.60;;;6.25;;
1452;SDS011;720;47.738;7.998;2024-03-08T05:34:20;7.85;;;5.05;;
1452;SDS011;720;47.738;7.998;2024-03-08T05:36:47;10.45;;;5.97;;
1452;SDS011;720;47.738;7.998;2024-03-08T05:39:15;8.25;;;4.60;;
1452;SDS011;720;47.738;7.998;2024-03-08T05:41:42;4.85;;;4.00;;
1452;SDS011;720;47.738;7.998;2024-03-08T05:44:08;11.27;;;5.13;;
1452;SDS011;720;47.738;7.998;2024-03-08T05:46:35;9.65;;;5.70;;
1452;SDS011;720;47.738;7.998;2024-03-08T05:49:01;9.10;;;5.72;;
1452;SDS011;720;47.738;7.998;2024-03-08T05:51:35;11.02;;;4.72;;
1452;SDS011;720;47.738;7.998;2024-03-08T05:54:05;8.32;;;3.92;;
1452;SDS011;720;47.738;7.998;2024-03-08T05:56:32;5.55;;;4.05;;
1452;SDS011;720;47.738;7.998;2024-03-08T05:58:58;7.20;;;3.92;;
1452;SDS011;720;47.738;7.998;2024-03-08T06:01:27;9.47;;;5.67;;
1452;SDS011;720;47.738;7.998;2024-03-08T06:03:53;8.85;;;6.43;;
1452;SDS011;720;47.738;7.998;2024-03-08T06:06:22;6.25;;;3.92;;
1452;SDS011;720;47.738;7.998;2024-03-08T06:08:49;10.05;;;4.93;;
1452;SDS011;720;47.738;7.998;2024-03-08T06:11:16;6.82;;;4.20;;
1452;SDS011;720;47.738;7.998;2024-03-08T06:13:43;6.80;;;4.05;;
1452;SDS011;720;47.738;7.998;2024-03-08T06:16:09;5.00;;;2.55;;
1452;SDS011;720;47.738;7.998;2024-03-08T06:18:34;5.57;;;3.77;;
1452;SDS011;720;47.738;7.998;2024-03-08T06:21:04;6.13;;;4.00;;
1452;SDS011;720;47.738;7.998;2024-03-08T06:23:31;6.07;;;3.90;;
1452;SDS011;720;47.738;7.998;2024-03-08T06:25:57;5.85;;;4.38;;
1452;SDS011;720;47.738;7.998;2024-03-08T06:28:22;7.30;;;3.70;;
1452;SDS011;720;47.738;7.998;2024-03-08T06:30:48;9.93;;;4.57;;
1452;SDS011;720;47.738;7.998;2024-03-08T06:33:15;4.95;;;4.13;;
1452;SDS011;720;47.738;7.998;2024-03-08T06:35:41;8.53;;;4.93;;
1452;SDS011;720;47.738;7.998;2024-03-08T06:38:07;6.80;;;4.00;;
1452;SDS011;720;47.738;7.998;2024-03-08T06:40:36;7.95;;;2.97;;
1452;SDS011;720;47.738;7.998;2024-03-08T06:43:02;6.90;;;3.77;;
1452;SDS011;720;47.738;7.998;2024-03-08T06:45:30;7.50;;;3.97;;
1452;SDS011;720;47.738;7.998;2024-03-08T06:47:56;5.70;;;3.85;;
1452;SDS011;720;47.738;7.998;2024-03-08T06:50:22;6.77;;;4.40;;
1452;SDS011;720;47.738;7.998;2024-03-08T06:52:48;11.27;;;6.17;;
1452;SDS011;720;47.738;7.998;2024-03-08T06:55:18;9.75;;;5.93;;
1452;SDS011;720;47.738;7.998;2024-03-08T06:57:44;8.90;;;5.07;;
1452;SDS011;720;47.738;7.998;2024-03-08T07:00:10;12.07;;;4.73;;
1452;SDS011;720;47.738;7.998;2024-03-08T07:02:38;5.72;;;3.30;;
1452;SDS011;720;47.738;7.998;2024-03-08T07:05:07;8.05;;;4.22;;
1452;SDS011;720;47.738;7.998;2024-03-08T07:07:35;6.70;;;5.10;;
1452;SDS011;720;47.738;7.998;2024-03-08T07:10:01;8.73;;;4.37;;
1452;SDS011;720;47.738;7.998;2024-03-08T07:12:26;5.63;;;3.70;;
1452;SDS011;720;47.738;7.998;2024-03-08T07:14:52;10.87;;;5.70;;
1452;SDS011;720;47.738;7.998;2024-03-08T07:17:18;12.43;;;8.13;;
1452;SDS011;720;47.738;7.998;2024-03-08T07:19:43;7.03;;;5.50;;
1452;SDS011;720;47.738;7.998;2024-03-08T07:22:10;7.10;;;4.97;;
1452;SDS011;720;47.738;7.998;2024-03-08T07:24:36;5.83;;;4.90;;
1452;SDS011;720;47.738;7.998;2024-03-08T07:27:01;18.43;;;16.40;;
1452;SDS011;720;47.738;7.998;2024-03-08T07:29:31;11.00;;;8.67;;
1452;SDS011;720;47.738;7.998;2024-03-08T07:31:57;6.73;;;6.10;;
1452;SDS011;720;47.738;7.998;2024-03-08T07:34:37;10.07;;;9.07;;
1452;SDS011;720;47.738;7.998;2024-03-08T07:37:04;12.00;;;9.90;;
1452;SDS011;720;47.738;7.998;2024-03-08T07:39:31;12.87;;;11.57;;
1452;SDS011;720;47.738;7.998;2024-03-08T07:41:56;33.03;;;20.87;;
1452;SDS011;720;47.738;7.998;2024-03-08T07:44:22;20.33;;;14.20;;
1452;SDS011;720;47.738;7.998;2024-03-08T07:46:48;19.23;;;10.90;;
1452;SDS011;720;47.738;7.998;2024-03-08T07:49:14;15.93;;;9.07;;
1452;SDS011;720;47.738;7.998;2024-03-08T07:51:40;5.43;;;4.73;;
1452;SDS011;720;47.738;7.998;2024-03-08T07:54:06;4.67;;;4.17;;
1452;SDS011;720;47.738;7.998;2024-03-08T07:56:34;5.10;;;4.60;;
1452;SDS011;720;47.738;7.998;2024-03-08T07:59:03;5.33;;;4.63;;
1452;SDS011;720;47.738;7.998;2024-03-08T08:01:29;4.53;;;4.13;;
1452;SDS011;720;47.738;7.998;2024-03-08T08:03:55;5.20;;;4.40;;
1452;SDS011;720;47.738;7.998;2024-03-08T08:06:22;3.70;;;3.40;;
1452;SDS011;720;47.738;7.998;2024-03-08T08:08:48;3.43;;;3.10;;
1452;SDS011;720;47.738;7.998;2024-03-08T08:11:14;2.70;;;2.50;;
1452;SDS011;720;47.738;7.998;2024-03-08T08:13:40;4.97;;;3.40;;
1452;SDS011;720;47.738;7.998;2024-03-08T08:16:08;6.63;;;4.47;;
1452;SDS011;720;47.738;7.998;2024-03-08T08:18:34;6.97;;;5.07;;
1452;SDS011;720;47.738;7.998;2024-03-08T08:21:00;5.70;;;5.03;;
1452;SDS011;720;47.738;7.998;2024-03-08T08:23:26;10.47;;;7.90;;
1452;SDS011;720;47.738;7.998;2024-03-08T08:25:51;16.00;;;13.00;;
1452;SDS011;720;47.738;7.998;2024-03-08T08:28:17;7.40;;;6.70;;
1452;SDS011;720;47.738;7.998;2024-03-08T08:30:44;5.17;;;4.67;;
1452;SDS011;720;47.738;7.998;2024-03-08T08:33:10;7.00;;;5.80;;
1452;SDS011;720;47.738;7.998;2024-03-08T08:35:36;6.10;;;5.50;;
1452;SDS011;720;47.738;7.998;2024-03-08T08:38:04;4.00;;;3.70;;
1452;SDS011;720;47.738;7.998;2024-03-08T08:40:32;3.40;;;3.10;;
1452;SDS011;720;47.738;7.998;2024-03-08T08:42:58;3.27;;;2.97;;
1452;SDS011;720;47.738;7.998;2024-03-08T08:45:24;4.10;;;3.43;;
1452;SDS011;720;47.738;7.998;2024-03-08T08:47:50;3.90;;;3.47;;
1452;SDS011;720;47.738;7.998;2024-03-08T08:50:16;3.07;;;2.87;;
1452;SDS011;720;47.738;7.998;2024-03-08T08:52:48;4.30;;;3.60;;
1452;SDS011;720;47.738;7.998;2024-03-08T08:55:14;3.33;;;2.80;;
1452;SDS011;720;47.738;7.998;2024-03-08T08:57:40;3.63;;;2.97;;
1452;SDS011;720;47.738;7.998;2024-03-08T09:00:06;3.50;;;3.20;;
1452;SDS011;720;47.738;7.998;2024-03-08T09:02:34;3.70;;;3.37;;
1452;SDS011;720;47.738;7.998;2024-03-08T09:05:00;4.40;;;3.13;;
1452;SDS011;720;47.738;7.998;2024-03-08T09:07:28;3.90;;;3.23;;
1452;SDS011;720;47.738;7.998;2024-03-08T09:09:53;3.33;;;2.77;;
1452;SDS011;720;47.738;7.998;2024-03-08T09:12:22;6.47;;;3.93;;
1452;SDS011;720;47.738;7.998;2024-03-08T09:14:48;3.20;;;2.90;;
1452;SDS011;720;47.738;7.998;2024-03-08T09:17:14;3.20;;;2.83;;
1452;SDS011;720;47.738;7.998;2024-03-08T09:19:42;3.50;;;2.17;;
1452;SDS011;720;47.738;7.998;2024-03-08T09:22:08;3.37;;;2.47;;
1452;SDS011;720;47.738;7.998;2024-03-08T09:24:35;3.20;;;2.57;;
1452;SDS011;720;47.738;7.998;2024-03-08T09:27:01;2.80;;;2.47;;
1452;SDS011;720;47.738;7.998;2024-03-08T09:29:26;3.43;;;1.83;;
1452;SDS011;720;47.738;7.998;2024-03-08T09:31:53;2.87;;;2.60;;
1452;SDS011;720;47.738;7.998;2024-03-08T09:34:18;2.50;;;2.30;;
1452;SDS011;720;47.738;7.998;2024-03-08T09:36:44;3.20;;;2.90;;
1452;SDS011;720;47.738;7.998;2024-03-08T09:39:10;3.87;;;2.63;;
1452;SDS011;720;47.738;7.998;2024-03-08T09:41:42;3.20;;;2.90;;
1452;SDS011;720;47.738;7.998;2024-03-08T09:44:08;3.80;;;3.50;;
1452;SDS011;720;47.738;7.998;2024-03-08T09:46:34;6.30;;;3.03;;
1452;SDS011;720;47.738;7.998;2024-03-08T09:49:00;4.03;;;3.73;;
1452;SDS011;720;47.738;7.998;2024-03-08T09:51:30;3.53;;;2.90;;
1452;SDS011;720;47.738;7.998;2024-03-08T09:54:00;3.93;;;3.57;;
1452;SDS011;720;47.738;7.998;2024-03-08T09:56:29;3.40;;;3.10;;
1452;SDS011;720;47.738;7.998;2024-03-08T09:59:00;5.20;;;3.60;;
1452;SDS011;720;47.738;7.998;2024-03-08T10:01:44;3.33;;;2.73;;
1452;SDS011;720;47.738;7.998;2024-03-08T10:04:10;3.67;;;2.60;;
1452;SDS011;720;47.738;7.998;2024-03-08T10:06:37;5.77;;;4.30;;
1452;SDS011;720;47.738;7.998;2024-03-08T10:09:02;3.97;;;3.60;;
1452;SDS011;720;47.738;7.998;2024-03-08T10:11:31;3.43;;;2.90;;
1452;SDS011;720;47.738;7.998;2024-03-08T10:13:56;3.37;;;3.07;;
1452;SDS011;720;47.738;7.998;2024-03-08T10:16:22;5.40;;;3.50;;
1452;SDS011;720;47.738;7.998;2024-03-08T10:18:49;6.90;;;4.20;;
1452;SDS011;720;47.738;7.998;2024-03-08T10:21:14;7.67;;;5.60;;
1452;SDS011;720;47.738;7.998;2024-03-08T10:23:42;4.40;;;4.00;;
1452;SDS011;720;47.738;7.998;2024-03-08T10:26:16;6.00;;;4.63;;
1452;SDS011;720;47.738;7.998;2024-03-08T10:28:46;4.80;;;4.30;;
1452;SDS011;720;47.738;7.998;2024-03-08T10:31:13;5.73;;;3.80;;
1452;SDS011;720;47.738;7.998;2024-03-08T10:33:40;4.63;;;3.30;;
1452;SDS011;720;47.738;7.998;2024-03-08T10:36:09;6.13;;;3.03;;
1452;SDS011;720;47.738;7.998;2024-03-08T10:38:36;4.00;;;3.27;;
1452;SDS011;720;47.738;7.998;2024-03-08T10:41:05;3.20;;;2.90;;
1452;SDS011;720;47.738;7.998;2024-03-08T10:43:32;3.43;;;2.80;;
1452;SDS011;720;47.738;7.998;2024-03-08T10:48:43;4.50;;;3.87;;
1452;SDS011;720;47.738;7.998;2024-03-08T10:51:10;3.97;;;2.70;;
1452;SDS011;720;47.738;7.998;2024-03-08T10:53:37;4.80;;;3.90;;
1452;SDS011;720;47.738;7.998;2024-03-08T10:56:07;3.10;;;2.90;;
1452;SDS011;720;47.738;7.998;2024-03-08T10:58:35;5.33;;;3.60;;
1452;SDS011;720;47.738;7.998;2024-03-08T11:01:01;5.37;;;3.23;;
1452;SDS011;720;47.738;7.998;2024-03-08T11:06:08;4.77;;;4.30;;
1452;SDS011;720;47.738;7.998;2024-03-08T11:08:40;6.33;;;4.03;;
1452;SDS011;720;47.738;7.998;2024-03-08T11:11:09;4.30;;;3.30;;
1452;SDS011;720;47.738;7.998;2024-03-08T11:13:52;3.87;;;3.50;;
1452;SDS011;720;47.738;7.998;2024-03-08T11:16:36;4.80;;;3.87;;
1452;SDS011;720;47.738;7.998;2024-03-08T11:21:35;4.73;;;2.90;;
1452;SDS011;720;47.738;7.998;2024-03-08T11:24:22;3.60;;;2.80;;
1452;SDS011;720;47.738;7.998;2024-03-08T11:26:48;3.00;;;2.67;;
1452;SDS011;720;47.738;7.998;2024-03-08T11:32:07;4.30;;;3.60;;
1452;SDS011;720;47.738;7.998;2024-03-08T11:34:34;3.63;;;3.30;;
1452;SDS011;720;47.738;7.998;2024-03-08T11:37:03;6.23;;;3.00;;
1452;SDS011;720;47.738;7.998;2024-03-08T11:39:30;7.13;;;3.57;;
1452;SDS011;720;47.738;7.998;2024-03-08T11:41:56;3.93;;;3.20;;
1452;SDS011;720;47.738;7.998;2024-03-08T11:44:24;4.10;;;2.90;;
1452;SDS011;720;47.738;7.998;2024-03-08T11:46:52;4.90;;;3.60;;
1452;SDS011;720;47.738;7.998;2024-03-08T11:49:18;5.70;;;3.10;;
1452;SDS011;720;47.738;7.998;2024-03-08T11:51:45;2.60;;;2.03;;
1452;SDS011;720;47.738;7.998;2024-03-08T11:54:11;3.97;;;2.70;;
1452;SDS011;720;47.738;7.998;2024-03-08T11:56:40;4.60;;;2.80;;
1452;SDS011;720;47.738;7.998;2024-03-08T11:59:12;5.00;;;3.10;;
1452;SDS011;720;47.738;7.998;2024-03-08T12:01:38;4.40;;;2.60;;
1452;SDS011;720;47.738;7.998;2024-03-08T12:04:04;1.93;;;1.70;;
1452;SDS011;720;47.738;7.998;2024-03-08T12:06:40;3.43;;;2.57;;
1452;SDS011;720;47.738;7.998;2024-03-08T12:09:10;4.03;;;2.97;;
1452;SDS011;720;47.738;7.998;2024-03-08T12:11:37;3.53;;;2.50;;
1452;SDS011;720;47.738;7.998;2024-03-08T12:14:04;3.07;;;2.23;;
1452;SDS011;720;47.738;7.998;2024-03-08T12:16:31;2.33;;;2.13;;
1452;SDS011;720;47.738;7.998;2024-03-08T12:18:57;2.23;;;2.13;;
1452;SDS011;720;47.738;7.998;2024-03-08T12:21:23;3.37;;;2.00;;
1452;SDS011;720;47.738;7.998;2024-03-08T12:24:06;3.00;;;2.40;;
1452;SDS011;720;47.738;7.998;2024-03-08T12:26:34;4.40;;;3.33;;
1452;SDS011;720;47.738;7.998;2024-03-08T12:29:14;4.20;;;2.83;;
1452;SDS011;720;47.738;7.998;2024-03-08T12:31:41;2.90;;;2.60;;
1452;SDS011;720;47.738;7.998;2024-03-08T12:34:07;2.77;;;2.50;;
1452;SDS011;720;47.738;7.998;2024-03-08T12:36:35;2.40;;;1.90;;
1452;SDS011;720;47.738;7.998;2024-03-08T12:39:01;2.63;;;2.00;;
1452;SDS011;720;47.738;7.998;2024-03-08T12:41:29;2.73;;;1.93;;
1452;SDS011;720;47.738;7.998;2024-03-08T12:43:54;4.53;;;2.83;;
1452;SDS011;720;47.738;7.998;2024-03-08T12:46:21;4.43;;;3.00;;
1452;SDS011;720;47.738;7.998;2024-03-08T12:48:55;2.20;;;1.87;;
1452;SDS011;720;47.738;7.998;2024-03-08T12:51:20;3.97;;;2.87;;
1452;SDS011;720;47.738;7.998;2024-03-08T12:53:46;2.77;;;1.97;;
1452;SDS011;720;47.738;7.998;2024-03-08T12:56:28;1.40;;;1.30;;
1452;SDS011;720;47.738;7.998;2024-03-08T12:58:55;1.90;;;1.80;;
1452;SDS011;720;47.738;7.998;2024-03-08T13:01:21;2.70;;;2.20;;
1452;SDS011;720;47.738;7.998;2024-03-08T13:03:47;3.73;;;2.30;;
1452;SDS011;720;47.738;7.998;2024-03-08T13:06:14;3.47;;;1.87;;
1452;SDS011;720;47.738;7.998;2024-03-08T13:08:41;2.60;;;2.40;;
1452;SDS011;720;47.738;7.998;2024-03-08T13:11:07;2.63;;;1.67;;
1452;SDS011;720;47.738;7.998;2024-03-08T13:13:35;4.10;;;2.43;;
1452;SDS011;720;47.738;7.998;2024-03-08T13:16:02;2.87;;;2.10;;
1452;SDS011;720;47.738;7.998;2024-03-08T13:18:28;2.93;;;2.33;;
1452;SDS011;720;47.738;7.998;2024-03-08T13:20:54;2.93;;;2.53;;
1452;SDS011;720;47.738;7.998;2024-03-08T13:23:20;1.83;;;1.67;;
1452;SDS011;720;47.738;7.998;2024-03-08T13:25:45;3.67;;;2.60;;
1452;SDS011;720;47.738;7.998;2024-03-08T13:28:14;3.37;;;2.30;;
1452;SDS011;720;47.738;7.998;2024-03-08T13:30:41;3.00;;;2.50;;
1452;SDS011;720;47.738;7.998;2024-03-08T13:33:06;1.57;;;1.47;;
1452;SDS011;720;47.738;7.998;2024-03-08T13:35:32;3.70;;;2.50;;
1452;SDS011;720;47.738;7.998;2024-03-08T13:37:59;2.95;;;2.50;;
1452;SDS011;720;47.738;7.998;2024-03-08T13:40:28;2.10;;;1.90;;
1452;SDS011;720;47.738;7.998;2024-03-08T13:42:53;3.40;;;2.13;;
1452;SDS011;720;47.738;7.998;2024-03-08T13:45:19;4.50;;;2.50;;
1452;SDS011;720;47.738;7.998;2024-03-08T13:47:49;2.70;;;1.50;;
1452;SDS011;720;47.738;7.998;2024-03-08T13:50:16;4.10;;;2.23;;
1452;SDS011;720;47.738;7.998;2024-03-08T13:52:46;2.23;;;2.03;;
1452;SDS011;720;47.738;7.998;2024-03-08T13:55:16;3.03;;;1.90;;
1452;SDS011;720;47.738;7.998;2024-03-08T13:57:42;3.23;;;1.97;;
1452;SDS011;720;47.738;7.998;2024-03-08T14:00:10;2.33;;;2.10;;
1452;SDS011;720;47.738;7.998;2024-03-08T14:02:36;2.23;;;1.77;;
1452;SDS011;720;47.738;7.998;2024-03-08T14:05:02;3.13;;;2.10;;
1452;SDS011;720;47.738;7.998;2024-03-08T14:07:28;3.40;;;2.57;;
1452;SDS011;720;47.738;7.998;2024-03-08T14:09:54;2.80;;;2.50;;
1452;SDS011;720;47.738;7.998;2024-03-08T14:12:20;4.00;;;2.47;;
1452;SDS011;720;47.738;7.998;2024-03-08T14:14:45;2.07;;;1.73;;
1452;SDS011;720;47.738;7.998;2024-03-08T14:17:11;3.67;;;2.27;;
1452;SDS011;720;47.738;7.998;2024-03-08T14:19:42;3.15;;;2.13;;
1452;SDS011;720;47.738;7.998;2024-03-08T14:22:07;2.70;;;2.23;;
1452;SDS011;720;47.738;7.998;2024-03-08T14:24:35;4.87;;;2.87;;
1452;SDS011;720;47.738;7.998;2024-03-08T14:27:01;2.60;;;2.40;;
1452;SDS011;720;47.738;7.998;2024-03-08T14:29:28;4.82;;;2.92;;
1452;SDS011;720;47.738;7.998;2024-03-08T14:31:57;3.20;;;2.10;;
1452;SDS011;720;47.738;7.998;2024-03-08T14:34:24;6.05;;;3.35;;
1452;SDS011;720;47.738;7.998;2024-03-08T14:36:52;4.28;;;3.05;;
1452;SDS011;720;47.738;7.998;2024-03-08T14:39:18;3.60;;;2.60;;
1452;SDS011;720;47.738;7.998;2024-03-08T14:41:47;4.83;;;2.60;;
1452;SDS011;720;47.738;7.998;2024-03-08T14:44:13;6.88;;;3.40;;
1452;SDS011;720;47.738;7.998;2024-03-08T14:46:39;3.50;;;2.60;;
1452;SDS011;720;47.738;7.998;2024-03-08T14:49:05;5.13;;;3.13;;
1452;SDS011;720;47.738;7.998;2024-03-08T14:51:32;5.27;;;4.27;;
1452;SDS011;720;47.738;7.998;2024-03-08T14:53:58;5.07;;;3.80;;
1452;SDS011;720;47.738;7.998;2024-03-08T14:56:23;3.10;;;2.40;;
1452;SDS011;720;47.738;7.998;2024-03-08T14:58:52;4.40;;;3.30;;
1452;SDS011;720;47.738;7.998;2024-03-08T15:01:18;2.83;;;2.60;;
1452;SDS011;720;47.738;7.998;2024-03-08T15:03:53;3.70;;;3.17;;
1452;SDS011;720;47.738;7.998;2024-03-08T15:06:19;4.47;;;3.20;;
1452;SDS011;720;47.738;7.998;2024-03-08T15:08:46;5.93;;;3.57;;
1452;SDS011;720;47.738;7.998;2024-03-08T15:11:12;5.17;;;3.40;;
1452;SDS011;720;47.738;7.998;2024-03-08T15:13:37;6.53;;;2.90;;
1452;SDS011;720;47.738;7.998;2024-03-08T15:16:09;2.83;;;2.63;;
1452;SDS011;720;47.738;7.998;2024-03-08T15:18:43;4.57;;;2.90;;
1452;SDS011;720;47.738;7.998;2024-03-08T15:21:12;1.63;;;1.43;;
1452;SDS011;720;47.738;7.998;2024-03-08T15:23:44;2.70;;;1.83;;
1452;SDS011;720;47.738;7.998;2024-03-08T15:26:16;1.53;;;1.43;;
1452;SDS011;720;47.738;7.998;2024-03-08T15:28:42;2.25;;;1.45;;
1452;SDS011;720;47.738;7.998;2024-03-08T15:31:10;2.27;;;1.60;;
1452;SDS011;720;47.738;7.998;2024-03-08T15:33:36;2.33;;;1.87;;